Time;durP1;ratioP1;P1;durP2;ratioP2;P2;SDS_P1;SDS_P2;PMS_P1;PMS_P2;Temp;Humidity;BMP_temperature;BMP_pressure;BME280_temperature;BME280_humidity;BME280_pressure;Samples;Min_cycle;Max_cycle;Signal;HPM_P1;HPM_P2
2023/10/20 00:02:23;;;;;;;56.80;22.92;;;7.60;99.90;;;7.68;100.00;98047.53;5045184;28;20063;-79
2023/10/20 00:04:49;;;;;;;54.72;23.80;;;7.60;99.90;;;7.62;100.00;98051.28;5045649;28;20036;-79
2023/10/20 00:07:15;;;;;;;52.83;24.15;;;7.70;99.90;;;7.65;100.00;98072.47;5048531;28;20045;-79
2023/10/20 00:09:42;;;;;;;55.20;24.17;;;7.60;99.90;;;7.65;100.00;98071.66;5049617;28;20041;-79
2023/10/20 00:12:10;;;;;;;58.13;23.30;;;7.60;99.90;;;7.61;100.00;98057.81;5051784;28;20033;-79
2023/10/20 00:14:35;;;;;;;;;;;7.70;99.90;;;7.59;100.00;98060.75;5032874;28;20091;-79
2023/10/20 00:17:01;;;;;;;;;;;7.60;99.90;;;7.58;100.00;98064.56;5033641;28;19917;-79
2023/10/20 00:19:27;;;;;;;;;;;7.60;99.90;;;7.57;100.00;98062.13;5034367;28;19965;-79
2023/10/20 00:21:52;;;;;;;;;;;7.60;99.90;;;7.58;100.00;98055.59;5033784;28;19932;-80
2023/10/20 00:24:18;;;;;;;;;;;7.60;99.90;;;7.63;100.00;98050.22;5045987;28;19928;-80
2023/10/20 00:26:44;;;;;;;;;;;7.60;99.90;;;7.62;100.00;98038.53;5033510;28;19970;-80
2023/10/20 00:29:09;;;;;;;;;;;7.60;99.90;;;7.59;100.00;98024.69;5033186;28;19952;-80
2023/10/20 00:31:35;;;;;;;;;;;7.60;99.90;;;7.57;100.00;98026.84;5033186;28;19956;-79
2023/10/20 00:34:00;;;;;;;;;;;7.60;99.90;;;7.55;100.00;98027.09;5049626;28;19956;-79
2023/10/20 00:36:27;;;;;;;;;;;7.60;99.90;;;7.67;100.00;98028.78;5039813;28;19921;-79
2023/10/20 00:38:53;;;;;;;;;;;7.70;99.90;;;7.68;100.00;98014.97;5035543;28;19924;-80
2023/10/20 00:41:19;;;;;;;;;;;7.70;99.90;;;7.62;100.00;98027.66;5037781;28;19916;-80
2023/10/20 00:43:44;;;;;;;;;;;7.60;99.90;;;7.57;100.00;98027.66;5033318;28;19917;-79
2023/10/20 00:46:10;;;;;;;;;;;7.60;99.90;;;7.59;100.00;98024.69;5033290;28;19921;-80
2023/10/20 00:48:36;;;;;;;;;;;7.60;99.90;;;7.55;100.00;98005.38;5033159;28;19920;-79
2023/10/20 00:51:05;;;;;;;;;;;7.60;99.90;;;7.62;100.00;98005.97;5033633;28;19912;-80
2023/10/20 00:53:33;;;;;;;;;;;7.60;99.90;;;7.62;100.00;98008.69;5033778;28;19917;-79
2023/10/20 00:56:00;;;;;;;;;;;7.60;99.90;;;7.59;100.00;98011.91;5033303;28;19917;-79
2023/10/20 00:58:26;;;;;;;;;;;7.60;99.90;;;7.59;100.00;98003.78;5047631;28;20400;-80
2023/10/20 01:00:52;;;;;;;;;;;7.60;99.90;;;7.65;100.00;98006.53;5033699;28;19917;-79
2023/10/20 01:03:18;;;;;;;;;;;7.70;99.90;;;7.61;100.00;98004.34;5036469;28;19913;-80
2023/10/20 01:05:44;;;;;;;;;;;7.70;99.90;;;7.59;100.00;97994.84;5033294;28;19941;-79
2023/10/20 01:08:10;;;;;;;;;;;7.60;99.90;;;7.66;100.00;97994.59;5048460;28;19917;-79
2023/10/20 01:10:35;;;;;;;;;;;7.70;99.90;;;7.64;100.00;97992.16;5033004;28;19921;-79
2023/10/20 01:13:01;;;;;;;;;;;7.70;99.90;;;7.61;100.00;97998.91;5033226;28;19928;-79
2023/10/20 01:15:27;;;;;;;;;;;7.60;99.90;;;7.66;100.00;97997.28;5048030;28;19924;-79
2023/10/20 01:17:54;;;;;;;;;;;7.60;99.90;;;7.65;100.00;97998.38;5033351;28;19918;-81
2023/10/20 01:20:20;;;;;;;;;;;7.60;99.90;;;7.56;100.00;97990.75;5048581;28;19924;-79
2023/10/20 01:22:45;;;;;;;;;;;7.60;99.90;;;7.62;100.00;97989.69;5048501;28;19932;-79
2023/10/20 01:25:11;;;;;;;;;;;7.70;99.90;;;7.69;100.00;97994.88;5033814;28;19917;-80
2023/10/20 01:27:37;;;;;;;;;;;7.70;99.90;;;7.66;100.00;97997.28;5036352;28;20275;-79
2023/10/20 01:30:04;;;;;;;;;;;7.60;99.90;;;7.68;100.00;97987.81;5052504;28;19917;-79
2023/10/20 01:32:30;;;;;;;;;;;7.60;99.90;;;7.64;100.00;97986.72;5033077;28;19976;-79
2023/10/20 01:34:55;;;;;;;;;;;7.70;99.90;;;7.65;100.00;97982.09;5038943;28;19928;-79
2023/10/20 01:37:21;;;;;;;;;;;7.60;99.90;;;7.70;100.00;97974.81;5055331;28;19924;-79
2023/10/20 01:39:47;;;;;;;;;;;7.70;99.90;;;7.68;100.00;97974.25;5037626;28;20368;-80
2023/10/20 01:42:13;;;;;;;;;;;7.70;99.90;;;7.67;100.00;97966.38;5033298;28;19947;-80
2023/10/20 01:44:39;;;;;;;;;;;7.70;99.90;;;7.65;100.00;97969.34;5032303;28;20380;-80
2023/10/20 01:47:05;;;;;;;;;;;7.70;99.90;;;7.60;100.00;97959.28;5032295;28;19920;-79
2023/10/20 01:49:31;;;;;;;;;;;7.60;99.90;;;7.62;100.00;97957.13;5048853;28;19924;-80
2023/10/20 01:51:56;;;;;;;;;;;7.60;99.90;;;7.63;100.00;97966.91;5048458;28;20011;-79
2023/10/20 01:54:24;;;;;;;;;;;7.60;99.90;;;7.53;100.00;97969.56;5032586;28;20020;-80
2023/10/20 01:56:50;;;;;;;;;;;7.60;99.90;;;7.54;100.00;97962.22;5032834;28;20314;-79
2023/10/20 01:59:15;;;;;;;;;;;7.60;99.90;;;7.56;100.00;97946.50;5050795;28;19916;-79
2023/10/20 02:01:42;;;;;;;;;;;7.60;99.90;;;7.59;100.00;97930.53;5054943;28;20422;-78
2023/10/20 02:04:07;;;;;;;;;;;7.60;99.90;;;7.58;100.00;97919.94;5036510;28;19919;-79
2023/10/20 02:06:34;;;;;;;;;;;7.60;99.90;;;7.63;100.00;97917.25;5036392;28;20029;-79
2023/10/20 02:09:01;;;;;;;;;;;7.60;99.90;;;7.63;100.00;97904.47;5051312;28;20383;-79
2023/10/20 02:11:27;;;;;;;;;;;7.60;99.90;;;7.63;100.00;97903.69;5035902;28;19917;-79
2023/10/20 02:13:53;;;;;;;;;;;7.60;99.90;;;7.62;100.00;97902.06;5052033;28;20453;-79
2023/10/20 02:16:19;;;;;;;;;;;7.60;99.90;;;7.61;100.00;97881.44;5036461;28;19924;-79
2023/10/20 02:18:44;;;;;;;;;;;7.60;99.90;;;7.57;100.00;97874.91;5051285;28;19917;-80
2023/10/20 02:21:10;;;;;;;;;;;7.50;99.90;;;7.60;100.00;97879.78;5055187;28;19917;-79
2023/10/20 02:23:38;;;;;;;;;;;7.60;99.90;;;7.48;100.00;97872.69;5052870;28;19921;-79
2023/10/20 02:26:06;;;;;;;;;;;7.60;99.90;;;7.54;100.00;97862.66;5037069;28;19917;-79
2023/10/20 02:28:36;;;;;;;;;;;7.50;99.90;;;7.53;100.00;97865.63;5036320;28;20007;-78
2023/10/20 02:31:13;;;;;;;;;;;7.50;99.90;;;7.53;100.00;97880.03;5036110;28;19951;-79
2023/10/20 02:33:39;;;;;;;;;;;7.50;99.90;;;7.51;100.00;97894.94;5051461;28;19921;-78
2023/10/20 02:36:05;;;;;;;;;;;7.50;99.90;;;7.45;100.00;97883.25;5036626;28;20316;-79
2023/10/20 02:38:31;;;;;;;;;;;7.50;99.90;;;7.45;100.00;97880.53;5036042;28;19931;-79
2023/10/20 02:40:56;;;;;;;;;;;7.50;99.90;;;7.43;100.00;97882.72;5036767;28;19916;-79
2023/10/20 02:43:22;;;;;;;;;;;7.50;99.90;;;7.49;100.00;97887.06;5038062;28;19917;-79
2023/10/20 02:45:53;;;;;;;;;;;7.50;99.90;;;7.44;100.00;97873.50;5050918;28;19921;-80
2023/10/20 02:48:19;;;;;;;;;;;7.50;99.90;;;7.47;100.00;97879.19;5051265;28;19916;-79
2023/10/20 02:50:45;;;;;;;;;;;7.50;99.90;;;7.46;100.00;97876.75;5035350;28;19917;-79
2023/10/20 02:53:13;;;;;;;;;;;7.50;99.90;;;7.46;100.00;97872.13;5034667;28;19917;-79
2023/10/20 02:55:40;;;;;;;;;;;7.50;99.90;;;7.51;100.00;97868.63;5039298;28;19931;-79
2023/10/20 02:58:07;;;;;;;;;;;7.50;99.90;;;7.46;100.00;97863.19;5035675;28;20007;-79
2023/10/20 03:00:33;;;;;;;;;;;7.50;99.90;;;7.50;100.00;97867.00;5057484;28;19923;-79
2023/10/20 03:02:59;;;;;;;;;;;7.50;99.90;;;7.43;100.00;97867.22;5035548;28;19923;-76
2023/10/20 03:05:29;;;;;;;;;;;7.50;99.90;;;7.44;100.00;97870.78;5036120;28;19917;-79
2023/10/20 03:07:57;;;;;;;;;;;7.50;99.90;;;7.44;100.00;97849.06;5034114;28;19917;-79
2023/10/20 03:10:23;;;;;;;;;;;7.50;99.90;;;7.39;100.00;97849.84;5035280;28;19943;-79
2023/10/20 03:12:49;;;;;;;;;;;7.50;99.90;;;7.39;100.00;97836.28;5035401;28;20016;-77
2023/10/20 03:15:15;;;;;;;;;;;7.40;99.90;;;7.38;100.00;97829.25;5050583;28;20039;-79
2023/10/20 03:17:41;;;;;;;;;;;7.40;99.90;;;7.40;100.00;97824.38;5035134;28;19917;-79
2023/10/20 03:20:08;;;;;;;;;;;7.40;99.90;;;7.44;100.00;97821.94;5035070;28;19921;-78
2023/10/20 03:22:35;;;;;;;;;;;7.50;99.90;;;7.40;100.00;97823.53;5038918;28;20390;-79
2023/10/20 03:25:02;;;;;;;;;;;7.40;99.90;;;7.38;100.00;97836.53;5036127;28;20050;-79
2023/10/20 03:27:29;;;;;;;;;;;7.40;99.90;;;7.36;100.00;97834.13;5035047;28;19917;-79
2023/10/20 03:29:55;;;;;;;;;;;7.40;99.90;;;7.35;100.00;97832.50;5051115;28;19981;-79
2023/10/20 03:32:20;;;;;;;;;;;7.40;99.90;;;7.36;100.00;97823.28;5035284;28;20369;-79
2023/10/20 03:34:46;;;;;;;;;;;7.40;99.90;;;7.38;100.00;97814.84;5035088;28;19994;-79
2023/10/20 03:37:13;;;;;;;;;;;7.40;99.90;;;7.40;100.00;97812.69;5051036;28;19917;-80
2023/10/20 03:39:39;;;;;;;;;;;7.40;99.90;;;7.43;100.00;97812.19;5035074;28;19916;-79
2023/10/20 03:42:07;;;;;;;;;;;7.40;99.90;;;7.39;100.00;97811.88;5035106;28;19928;-79
2023/10/20 03:44:35;;;;;;;;;;;7.40;99.90;;;7.40;100.00;97813.50;5035252;28;20494;-78
2023/10/20 03:47:05;;;;;;;;;;;7.40;99.90;;;7.36;100.00;97811.59;5033283;28;19917;-78
2023/10/20 03:49:33;;;;;;;;;;;7.40;99.90;;;7.35;100.00;97802.66;5034893;28;19924;-79
2023/10/20 03:52:06;;;;;;;;;;;7.40;99.90;;;7.33;100.00;97802.09;5050503;28;19936;-79
2023/10/20 03:54:33;;;;;;;;;;;7.40;99.90;;;7.25;100.00;97798.00;5035794;28;20291;-79
2023/10/20 03:57:00;;;;;;;;;;;7.40;99.90;;;7.28;100.00;97794.75;5033545;28;19913;-79
2023/10/20 03:59:25;;;;;;;;;;;7.40;99.90;;;7.33;100.00;97791.25;5054151;28;19931;-78
2023/10/20 04:01:52;;;;;;;;;;;7.40;99.90;;;7.36;100.00;97779.03;5034253;28;19925;-78
2023/10/20 04:04:18;;;;;;;;;;;7.40;99.90;;;7.34;100.00;97779.31;5034268;28;19917;-79
2023/10/20 04:06:44;;;;;;;;;;;7.40;99.90;;;7.33;100.00;97778.50;5034289;28;22127;-79
2023/10/20 04:09:10;;;;;;;;;;;7.40;99.90;;;7.28;100.00;97766.81;5049329;28;20253;-79
2023/10/20 04:11:37;;;;;;;;;;;7.40;99.90;;;7.34;100.00;97769.28;5034901;28;20373;-78
2023/10/20 04:14:05;;;;;;;;;;;7.40;99.90;;;7.29;100.00;97765.72;5049357;28;20023;-78
2023/10/20 04:16:37;;;;;;;;;;;7.40;99.90;;;7.28;100.00;97780.38;5033796;28;19917;-79
2023/10/20 04:19:04;;;;;;;;;;;7.30;99.90;;;7.29;100.00;97784.72;5041237;28;19923;-79
2023/10/20 04:21:30;;;;;;;;;;;7.30;99.90;;;7.27;100.00;97774.13;5033075;28;20297;-79
2023/10/20 04:23:56;;;;;;;;;;;7.40;99.90;;;7.27;100.00;97748.91;5039038;28;19964;-78
2023/10/20 04:26:22;;;;;;;;;;;7.30;99.90;;;7.28;100.00;97735.09;5034731;28;19940;-78
2023/10/20 04:29:02;;;;;;;;;;;7.30;99.90;;;7.28;100.00;97732.38;5034043;28;19917;-78
2023/10/20 04:53:42;;;;;;;;;;;7.20;99.90;;;7.19;100.00;97671.63;5033306;28;19952;-79
2023/10/20 05:01:40;;;;;;;;;;;7.20;99.90;;;7.15;100.00;97686.78;5032892;28;19928;-79
2023/10/20 05:04:28;;;;;;;;;;;7.20;99.90;;;7.16;100.00;97697.38;5054476;28;19920;-78
2023/10/20 05:06:58;;;;;;;;;;;7.20;99.90;;;7.15;100.00;97697.63;5033472;28;19921;-80
2023/10/20 05:09:26;;;;;;;;;;;7.20;99.90;;;7.12;100.00;97700.88;5033449;28;19983;-80
2023/10/20 05:11:53;;;;;;;;;;;7.20;99.90;;;7.09;100.00;97680.53;5033746;28;19939;-79
2023/10/20 05:14:19;;;;;;;;;;;7.20;99.90;;;7.16;100.00;97688.41;5033658;28;20332;-79
2023/10/20 05:16:44;;;;;;;;;;;7.20;99.90;;;7.22;100.00;97692.78;5033694;28;19989;-79
2023/10/20 05:19:10;;;;;;;;;;;7.20;99.90;;;7.15;100.00;97709.28;5033187;28;19916;-78
2023/10/20 05:21:38;;;;;;;;;;;7.20;99.90;;;7.15;100.00;97701.16;5032904;28;19920;-78
2023/10/20 05:24:04;;;;;;;;;;;7.20;99.90;;;7.03;100.00;97687.03;5048983;28;20372;-79
2023/10/20 05:26:31;;;;;;;;;;;7.20;99.90;;;7.14;100.00;97685.97;5033384;28;19967;-78
2023/10/20 05:28:58;;;;;;;;;;;7.20;99.90;;;7.11;100.00;97688.38;5048473;28;19917;-79
2023/10/20 05:31:25;;;;;;;;;;;7.20;99.90;;;7.05;100.00;97665.91;5049306;28;19917;-83
2023/10/20 05:33:50;;;;;;;;;;;7.20;99.90;;;6.99;100.00;97646.09;5033599;28;19924;-79
2023/10/20 05:36:16;;;;;;;;;;;7.20;99.90;;;6.95;100.00;97620.59;5052815;28;19921;-80
2023/10/20 05:38:42;;;;;;;;;;;7.10;99.90;;;6.99;100.00;97639.84;5052848;28;19917;-79
2023/10/20 05:41:07;;;;;;;;;;;7.10;99.90;;;6.97;100.00;97648.25;5037002;28;19917;-79
2023/10/20 05:43:34;;;;;;;;;;;7.10;99.90;;;7.01;100.00;97656.63;5052362;28;20276;-81
2023/10/20 05:46:00;;;;;;;;;;;7.10;99.90;;;7.00;100.00;97644.16;5036982;28;19917;-82
2023/10/20 05:48:25;;;;;;;;;;;7.10;99.90;;;6.97;100.00;97644.72;5035564;28;19931;-80
2023/10/20 05:50:56;;;;;;;;;;;7.10;99.90;;;6.99;100.00;97647.97;5036969;28;19917;-81
2023/10/20 05:53:22;;;;;;;;;;;7.10;99.90;;;6.97;100.00;97652.84;5037168;28;19917;-79
2023/10/20 05:55:48;;;;;;;;;;;7.10;99.90;;;7.00;100.00;97653.13;5036990;28;20004;-79
2023/10/20 05:58:13;;;;;;;;;;;7.10;99.90;;;6.96;100.00;97640.38;5036483;28;20395;-79
2023/10/20 06:00:39;;;;;;;;;;;7.10;99.90;;;6.99;100.00;97647.97;5036942;28;19924;-80
2023/10/20 06:03:06;;;;;;;;;;;7.10;99.90;;;6.96;100.00;97643.91;5037358;28;19913;-81
2023/10/20 06:05:31;;;;;;;;;;;7.10;99.90;;;6.98;100.00;97649.88;5051198;28;20376;-78
2023/10/20 06:07:57;;;;;;;;;;;7.10;99.90;;;6.94;100.00;97643.38;5051940;28;19923;-78
2023/10/20 06:10:22;;;;;;;;;;;7.10;99.90;;;6.95;100.00;97634.16;5036486;28;19949;-78
2023/10/20 06:12:52;;;;;;;;;;;7.10;99.90;;;6.92;100.00;97621.13;5043108;28;20509;-79
2023/10/20 06:15:19;;;;;;;;;;;7.10;99.90;;;6.99;100.00;97618.97;5036424;28;20273;-78
2023/10/20 06:17:46;;;;;;;;;;;7.10;99.90;;;6.97;100.00;97614.91;5043600;28;20296;-78
2023/10/20 06:20:13;;;;;;;;;;;7.10;99.90;;;6.92;100.00;97615.72;5051248;28;19945;-79
2023/10/20 06:22:41;;;;;;;;;;;7.10;99.90;;;6.95;100.00;97598.91;5036546;28;20327;-79
2023/10/20 06:25:12;;;;;;;;;;;7.10;99.90;;;6.83;100.00;97579.34;5038407;28;20372;-78
2023/10/20 06:27:45;;;;;;;;;;;7.10;99.90;;;6.92;100.00;97591.31;5036351;28;20403;-79
2023/10/20 06:30:14;;;;;;;;;;;7.10;99.90;;;6.97;100.00;97587.78;5041678;28;19917;-78
2023/10/20 06:32:45;;;;;;;;;;;7.10;99.90;;;6.90;100.00;97590.78;5036548;28;20352;-78
2023/10/20 06:35:13;;;;;;;;;;;7.10;99.90;;;6.88;100.00;97585.63;5034428;28;19939;-79
2023/10/20 06:40:24;;;;;;;;;;;7.10;99.90;;;6.90;100.00;97550.94;5043513;28;19917;-77
2023/10/20 06:42:49;;;;;;;;;;;7.10;99.90;;;6.81;100.00;97535.47;5035424;28;19942;-78
2023/10/20 06:45:15;;;;;;;;;;;7.10;99.90;;;6.90;100.00;97550.94;5035286;28;19917;-78
2023/10/20 06:47:40;;;;;;;;;;;7.10;99.90;;;6.91;100.00;97551.75;5035766;28;19917;-78
2023/10/20 06:50:07;;;;;;;;;;;7.10;99.90;;;6.85;100.00;97521.13;5036047;28;20020;-78
2023/10/20 06:52:35;;;;;;;;;;;7.10;99.90;;;6.85;100.00;97518.41;5035902;28;19924;-79
2023/10/20 06:55:04;;;;;;;;;;;7.10;99.90;;;6.92;100.00;97520.84;5035990;28;19929;-78
2023/10/20 06:57:30;;;;;;;;;;;7.10;99.90;;;6.95;100.00;97525.75;5036168;28;20383;-78
2023/10/20 06:59:55;;;;;;;;;;;7.10;99.90;;;6.98;100.00;97529.78;5036393;28;19917;-77
2023/10/20 07:02:21;;;;;;;;;;;7.10;99.90;;;6.91;100.00;97528.16;5051491;28;19917;-77
2023/10/20 07:04:48;;;;;;;;;;;7.10;99.90;;;6.91;100.00;97530.88;5035888;28;19971;-78
2023/10/20 07:07:15;;;;;;;;;;;7.10;99.90;;;6.83;100.00;97512.44;5051224;28;19944;-78
2023/10/20 07:09:41;;;;;;;;;;;7.20;99.90;;;7.06;100.00;97526.56;5035313;28;19960;-77
2023/10/20 07:12:07;;;;;;;;;;;7.20;99.90;;;6.97;100.00;97512.72;5041536;28;19952;-78
2023/10/20 07:14:34;;;;;;;;;;;7.20;99.90;;;7.06;100.00;97507.59;5035852;28;19916;-78
2023/10/20 07:17:03;;;;;;;;;;;7.20;99.90;;;7.01;100.00;97510.28;5035928;28;19964;-78
2023/10/20 07:19:31;;;;;;;;;;;7.20;99.90;;;7.01;100.00;97502.13;5035656;28;20321;-79
2023/10/20 07:21:57;;;;;;;;;;;7.20;99.90;;;7.08;100.00;97516.25;5035489;28;19921;-78
2023/10/20 07:24:23;;;;;;;;;;;7.30;99.90;;;7.15;100.00;97529.53;5034870;28;19917;-78
2023/10/20 07:26:49;;;;;;;;;;;7.30;99.90;;;7.12;100.00;97530.06;5035375;28;19916;-79
2023/10/20 07:29:15;;;;;;;;;;;7.30;99.90;;;7.13;100.00;97526.28;5050319;28;19916;-78
2023/10/20 07:31:45;;;;;;;;;;;7.30;99.90;;;7.11;100.00;97523.03;5039547;28;19913;-79
2023/10/20 07:34:11;;;;;;;;;;;7.30;99.90;;;7.11;100.00;97523.03;5035634;28;20319;-78
2023/10/20 07:36:37;;;;;;;;;;;7.20;99.90;;;7.09;100.00;97520.59;5035119;28;19913;-79
2023/10/20 07:39:03;;;;;;;;;;;7.30;99.90;;;7.01;100.00;97508.38;5034326;28;19925;-78
2023/10/20 07:41:29;;;;;;;;;;;7.30;99.90;;;7.04;100.00;97502.41;5033445;28;19932;-79
2023/10/20 07:43:56;;;;;;;;;;;7.30;99.90;;;6.98;100.00;97492.66;5034723;28;19913;-77
2023/10/20 07:46:22;;;;;;;;;;;7.30;99.90;;;6.98;100.00;97487.25;5049564;28;20253;-78
2023/10/20 07:48:47;;;;;;;;;;;7.30;99.90;;;7.08;100.00;97485.63;5038271;28;19924;-77
2023/10/20 07:51:13;;;;;;;;;;;7.30;99.90;;;7.14;100.00;97495.38;5035009;28;20006;-78
2023/10/20 07:53:39;;;;;;;;;;;7.30;99.90;;;7.02;100.00;97477.50;5055921;28;20019;-79
2023/10/20 07:56:04;;;;;;;;;;;7.30;99.90;;;7.00;100.00;97474.25;5033982;28;19924;-77
2023/10/20 07:58:31;;;;;;;;;;;7.30;99.90;;;7.00;100.00;97478.84;5049676;28;19917;-78
2023/10/20 08:00:57;;;;;;;;;;;7.30;99.90;;;7.01;100.00;97481.28;5034463;28;19926;-78
2023/10/20 08:03:23;;;;;;;;;;;7.30;99.90;;;6.94;100.00;97478.03;5033758;28;20335;-77
2023/10/20 08:05:49;;;;;;;;;;;7.30;99.90;;;7.04;100.00;97483.44;5034221;28;19979;-77
2023/10/20 08:08:14;;;;;;;;;;;7.30;99.90;;;6.98;100.00;97470.97;5034756;28;20019;-76
2023/10/20 08:10:40;;;;;;;;;;;7.30;99.90;;;7.08;100.00;97470.19;5034295;28;19917;-81
2023/10/20 08:13:06;;;;;;;;;;;7.30;99.90;;;7.09;100.00;97468.25;5036345;28;20016;-78
2023/10/20 08:15:38;;;;;;;;;;;7.30;99.90;;;7.10;100.00;97469.88;5052286;28;20044;-77
2023/10/20 08:18:06;;;;;;;;;;;7.30;99.90;;;7.09;100.00;97458.25;5031778;28;19935;-76
2023/10/20 08:20:32;;;;;;;;;;;7.30;99.90;;;7.11;100.00;97461.50;5048434;28;19921;-78
2023/10/20 08:23:00;;;;;;;;;;;7.30;99.90;;;7.02;100.00;97460.41;5042812;28;19922;-78
2023/10/20 08:25:26;;;;;;;;;;;7.20;99.90;;;7.07;100.00;97451.47;5053985;28;19971;-78
2023/10/20 08:27:51;;;;;;;;;;;7.30;99.90;;;7.10;100.00;97440.91;5038831;28;19975;-77
2023/10/20 08:30:20;;;;;;;;;;;7.30;99.90;;;6.97;100.00;97430.59;5043059;28;19924;-80
2023/10/20 08:32:45;;;;;;;;;;;7.30;99.90;;;7.18;100.00;97436.81;5047027;28;20015;-80
2023/10/20 08:35:11;;;;;;;;;;;7.30;99.90;;;7.11;100.00;97428.97;5048001;28;20028;-79
2023/10/20 08:37:37;;;;;;;;;;;7.30;99.90;;;7.15;100.00;97440.06;5050383;28;19959;-78
2023/10/20 08:40:10;;;;;;;;;;;7.30;99.90;;;7.11;100.00;97457.97;5031881;28;19956;-78
2023/10/20 08:42:39;;;;;;;;;;;7.30;99.90;;;7.18;100.00;97459.31;5031034;28;20376;-79
2023/10/20 08:45:13;;;;;;;;;;;7.30;99.90;;;7.14;100.00;97452.81;5038085;28;20004;-79
2023/10/20 08:47:41;;;;;;;;;;;7.30;99.90;;;7.17;100.00;97448.75;5034841;28;20331;-81
2023/10/20 08:50:09;;;;;;;;;;;7.30;99.90;;;7.14;100.00;97460.13;5037455;28;19921;-86
2023/10/20 08:52:35;;;;;;;;;;;7.30;99.90;;;7.16;100.00;97475.03;5036413;28;20719;-79
2023/10/20 08:55:01;;;;;;;;;;;7.30;99.90;;;7.08;100.00;97453.09;5030743;28;19925;-79
2023/10/20 08:57:27;;;;;;;;;;;7.30;99.90;;;7.11;100.00;97477.75;5030255;28;19920;-78
2023/10/20 08:59:54;;;;;;;;;;;7.30;99.90;;;7.03;100.00;97475.59;5031928;28;21035;-78
2023/10/20 09:02:20;;;;;;;;;;;7.30;99.90;;;7.01;100.00;97481.28;5035915;28;20019;-78
2023/10/20 09:04:51;;;;;;;;;;;7.30;99.90;;;6.90;100.00;97468.81;5029944;28;20364;-78
2023/10/20 09:07:17;;;;;;;;;;;7.20;99.90;;;6.95;100.00;97481.53;5045309;28;19921;-79
2023/10/20 09:09:43;;;;;;;;;;;7.20;99.90;;;7.04;100.00;97482.66;5034138;28;20572;-78
2023/10/20 09:12:10;;;;;;;;;;;7.20;99.90;;;7.04;100.00;97491.56;5036425;28;19913;-78
2023/10/20 09:14:39;;;;;;;;;;;7.20;99.90;;;7.10;100.00;97489.69;5030649;28;19975;-79
2023/10/20 09:17:06;;;;;;;;;;;7.20;99.90;;;7.10;100.00;97492.41;5039751;28;19917;-76
2023/10/20 09:19:32;;;;;;;;;;;7.20;99.90;;;7.07;100.00;97511.09;5041948;28;19916;-77
2023/10/20 09:21:57;;;;;;;;;;;7.20;99.90;;;7.04;100.00;97505.13;5045403;28;20009;-78
2023/10/20 09:24:31;;;;;;;;;;;7.20;99.90;;;6.96;100.00;97500.25;5038587;28;19979;-79
2023/10/20 09:26:57;;;;;;;;;;;7.20;99.90;;;7.02;100.00;97498.34;5045330;28;19925;-79
2023/10/20 09:29:24;;;;;;;;;;;7.20;99.90;;;7.00;100.00;97495.91;5046021;28;19978;-79
2023/10/20 09:31:50;;;;;;;;;;;7.20;99.90;;;7.03;100.00;97529.81;5042288;28;19947;-79
2023/10/20 09:34:16;;;;;;;;;;;7.20;99.90;;;6.91;100.00;97524.66;5037151;28;19928;-80
2023/10/20 09:36:45;;;;;;;;;;;7.20;99.90;;;6.97;100.00;97528.16;5038162;28;20380;-79
2023/10/20 09:39:20;;;;;;;;;;;7.10;99.90;;;7.01;100.00;97540.91;5047499;28;19920;-79
2023/10/20 09:41:50;;;;;;;;;;;7.10;99.90;;;6.93;100.00;97540.63;5039614;28;19970;-78
2023/10/20 09:44:25;;;;;;;;;;;7.10;99.90;;;6.89;100.00;97537.63;5035348;28;19925;-79
2023/10/20 09:47:07;;;;;;;;;;;7.10;99.90;;;6.90;100.00;97550.13;5042621;28;19939;-78
2023/10/20 09:49:35;;;;;;;;;;;7.10;99.90;;;6.85;100.00;97544.69;5039471;28;20356;-78
2023/10/20 09:52:01;;;;;;;;;;;7.10;99.90;;;6.89;100.00;97554.72;5038043;28;19967;-80
2023/10/20 09:54:30;;;;;;;;;;;7.10;99.90;;;6.84;100.00;97540.34;5040642;28;19920;-80
2023/10/20 09:56:57;;;;;;;;;;;7.10;99.90;;;6.86;100.00;97552.56;5046411;28;19992;-82
2023/10/20 09:59:25;;;;;;;;;;;7.10;99.90;;;6.87;100.00;97553.34;5038469;28;20296;-80
2023/10/20 10:01:55;;;;;;;;;;;7.10;99.90;;;7.00;100.00;97552.00;5039520;28;19955;-79
2023/10/20 10:04:27;;;;;;;;;;;7.10;99.90;;;7.03;100.00;97544.16;5032668;28;20258;-80
2023/10/20 10:06:52;;;;;;;;;;;7.20;99.90;;;7.06;100.00;97548.25;5032150;28;20292;-80
2023/10/20 10:09:18;;;;;;;;;;;7.20;99.90;;;7.05;100.00;97547.41;5061872;28;20007;-79
2023/10/20 10:11:45;;;;;;;;;;;7.20;99.90;;;7.05;100.00;97542.00;5042261;28;20011;-79
2023/10/20 10:14:25;;;;;;;;;;;7.20;99.90;;;7.14;100.00;97560.44;5059574;28;19963;-78
2023/10/20 10:16:54;;;;;;;;;;;7.20;99.90;;;7.16;100.00;97574.53;5048372;28;19987;-79
2023/10/20 10:19:24;;;;;;;;;;;7.30;99.90;;;7.03;100.00;97557.72;5034391;28;19940;-80
2023/10/20 10:21:53;;;;;;;;;;;7.30;99.90;;;7.21;100.00;97574.56;5041318;28;19917;-79
2023/10/20 10:24:20;;;;;;;;;;;7.30;99.90;;;7.15;100.00;97575.63;5036558;28;19917;-77
2023/10/20 10:27:07;;;;;;;;;;;7.30;99.90;;;7.16;100.00;97588.09;5036299;28;19960;-79
2023/10/20 10:30:05;;;;;;;;;;;7.30;99.90;;;7.09;100.00;97595.66;5035915;28;19916;-78
2023/10/20 10:32:32;;;;;;;;;;;7.30;99.90;;;7.10;100.00;97598.13;5036787;28;19924;-78
2023/10/20 10:34:58;;;;;;;;;;;7.30;99.90;;;7.09;100.00;97595.66;5038753;28;20011;-79
2023/10/20 10:37:35;;;;;;;;;;;7.30;99.90;;;7.04;100.00;97588.38;5051814;28;19917;-79
2023/10/20 10:40:19;;;;;;;;;;;7.30;99.90;;;7.05;100.00;97590.78;5036285;28;19913;-79
2023/10/20 10:42:50;;;;;;;;;;;7.20;99.90;;;7.04;100.00;97578.31;5036036;28;19963;-78
2023/10/20 10:45:35;;;;;;;;;;;7.20;99.90;;;7.04;100.00;97561.25;5035562;28;19921;-80
2023/10/20 10:48:07;;;;;;;;;;;7.20;99.90;;;7.05;100.00;97566.41;5035466;28;20012;-79
2023/10/20 10:50:36;;;;;;;;;;;7.30;99.90;;;6.99;100.00;97547.69;5036283;28;19923;-79
2023/10/20 10:53:02;;;;;;;;;;;7.30;99.90;;;7.09;100.00;97552.31;5043044;28;20364;-78
2023/10/20 10:55:29;;;;;;;;;;;7.30;99.90;;;7.16;100.00;97552.84;5051759;28;19917;-78
2023/10/20 10:57:59;;;;;;;;;;;7.30;99.90;;;7.17;100.00;97543.66;5049873;28;19924;-78
2023/10/20 11:00:26;;;;;;;;;;;7.40;99.90;;;7.12;100.00;97539.03;5064697;28;19916;-78
2023/10/20 11:02:52;;;;;;;;;;;7.40;99.90;;;7.23;100.00;97558.84;5046131;28;20289;-79
2023/10/20 11:05:19;;;;;;;;;;;7.40;99.90;;;7.18;100.00;97565.06;5046865;28;20084;-78
2023/10/20 11:07:59;;;;;;;;;;;7.40;99.90;;;7.10;100.00;97552.03;5050430;28;20455;-79
2023/10/20 11:10:28;;;;;;;;;;;7.40;99.90;;;7.18;100.00;97548.78;5045556;28;19956;-78
2023/10/20 11:12:58;;;;;;;;;;;7.30;99.90;;;7.19;100.00;97544.19;5051346;28;19916;-78
2023/10/20 11:15:30;;;;;;;;;;;7.40;99.90;;;7.03;100.00;97549.59;5060333;28;19916;-78
2023/10/20 11:18:00;;;;;;;;;;;7.30;99.90;;;7.04;100.00;97534.94;5039145;28;19977;-78
2023/10/20 11:20:28;;;;;;;;;;;7.30;99.90;;;6.95;100.00;97531.16;5036828;28;19971;-78
2023/10/20 11:22:54;;;;;;;;;;;7.30;99.90;;;6.97;100.00;97522.75;5036993;28;20296;-78
2023/10/20 11:25:22;;;;;;;;;;;7.20;99.90;;;6.96;100.00;97489.41;5056278;28;20349;-78
2023/10/20 11:27:55;;;;;;;;;;;7.20;99.90;;;7.01;100.00;97492.13;5035342;28;19928;-78
2023/10/20 11:30:31;;;;;;;;;;;7.30;99.90;;;7.08;100.00;97489.16;5034074;28;19925;-77
2023/10/20 11:32:57;;;;;;;;;;;7.30;99.90;;;7.00;100.00;97490.50;5034536;28;19920;-78
2023/10/20 11:35:24;;;;;;;;;;;7.30;99.90;;;6.83;100.00;97489.94;5035396;28;20320;-78
2023/10/20 11:37:54;;;;;;;;;;;7.20;99.90;;;6.96;100.00;97489.41;5049777;28;19917;-78
2023/10/20 11:40:26;;;;;;;;;;;7.20;99.90;;;7.04;100.00;97478.03;5034941;28;20432;-78
2023/10/20 11:42:51;;;;;;;;;;;7.30;99.90;;;7.14;100.00;97470.97;5034275;28;20399;-78
2023/10/20 11:45:18;;;;;;;;;;;7.30;99.90;;;7.14;100.00;97471.78;5058394;28;19928;-79
2023/10/20 11:47:43;;;;;;;;;;;7.40;99.90;;;7.15;100.00;97491.56;5041683;28;19917;-78
2023/10/20 11:50:18;;;;;;;;;;;7.40;99.90;;;7.24;100.00;97495.38;5035292;28;19932;-78
2023/10/20 11:52:45;;;;;;;;;;;7.50;99.90;;;7.21;100.00;97495.94;5034656;28;19917;-78
2023/10/20 11:55:11;;;;;;;;;;;7.40;99.90;;;7.19;100.00;97503.53;5034688;28;19917;-78
2023/10/20 11:57:40;;;;;;;;;;;7.40;99.90;;;7.08;100.00;97493.75;5057490;28;19921;-78